Terminal Aerodrome Forecast
Issued by NWS

Home | Current Version | Previous Version | Text Only | Print | Product List | Glossary On
Versions: 1 2 3 4 5 6 7 8 9 10 11 12 13 14 15 16
746
FTUS44 KSJT 171125
TAFSOA
TAF
KSOA 171125Z 1712/1812 20003KT 1/2SM FG OVC001
      TEMPO 1712/1715 3SM BR OVC005
     FM171500 20004KT 4SM BR OVC007
     FM171700 20005KT P6SM OVC015
     FM171900 20003KT P6SM SCT250=

USA.gov is the U.S. government's official web portal to all federal, state and local government web resources and services.